createdAt,value
2017-10-27T00:01:59.845Z,4.93
2017-10-27T00:04:27.439Z,4.13
2017-10-27T00:06:55.071Z,4.53
2017-10-27T00:09:22.616Z,8.07
2017-10-27T00:11:50.206Z,5.13
2017-10-27T00:14:17.755Z,4.30
2017-10-27T00:16:45.345Z,6.63
2017-10-27T00:19:12.873Z,4.47
2017-10-27T00:21:40.434Z,4.37
2017-10-27T00:24:07.980Z,4.83
2017-10-27T00:26:35.547Z,6.73
2017-10-27T00:29:03.125Z,6.13
2017-10-27T00:31:30.801Z,5.93
2017-10-27T00:33:58.384Z,4.50
2017-10-27T00:36:25.989Z,7.33
2017-10-27T00:38:53.557Z,4.30
2017-10-27T00:41:21.865Z,4.00
2017-10-27T00:43:49.477Z,7.07
2017-10-27T00:46:16.999Z,3.73
2017-10-27T00:48:44.573Z,4.83
2017-10-27T00:51:12.124Z,3.47
2017-10-27T00:53:39.744Z,5.93
2017-10-27T00:56:11.303Z,5.80
2017-10-27T00:58:38.895Z,3.33
2017-10-27T01:01:06.515Z,3.97
2017-10-27T01:03:34.779Z,3.47
2017-10-27T01:06:02.382Z,3.00
2017-10-27T01:08:31.040Z,5.20
2017-10-27T01:10:58.817Z,5.77
2017-10-27T01:13:26.406Z,4.20
2017-10-27T01:15:54.008Z,4.53
2017-10-27T01:18:21.606Z,4.33
2017-10-27T01:20:49.200Z,3.87
2017-10-27T01:23:17.535Z,4.20
2017-10-27T01:25:45.132Z,5.13
2017-10-27T01:28:12.768Z,4.13
2017-10-27T01:30:40.367Z,3.60
2017-10-27T01:33:07.953Z,3.60
2017-10-27T01:35:35.501Z,6.17
2017-10-27T01:38:03.084Z,3.63
2017-10-27T01:40:31.483Z,4.43
2017-10-27T01:42:59.049Z,3.90
2017-10-27T01:45:26.626Z,3.80
2017-10-27T01:47:54.239Z,7.40
2017-10-27T01:50:21.814Z,7.50
2017-10-27T01:52:50.989Z,3.73
2017-10-27T01:55:18.582Z,4.40
2017-10-27T01:57:46.967Z,5.30
2017-10-27T02:00:14.497Z,9.90
2017-10-27T02:02:42.136Z,4.30
2017-10-27T02:05:09.719Z,3.47
2017-10-27T02:07:38.280Z,6.47
2017-10-27T02:10:05.848Z,4.00
2017-10-27T02:12:33.443Z,4.70
2017-10-27T02:15:01.048Z,3.50
2017-10-27T02:17:30.449Z,3.53
2017-10-27T02:19:58.797Z,3.63
2017-10-27T02:22:26.378Z,3.40
2017-10-27T02:24:53.976Z,3.33
2017-10-27T02:27:22.355Z,3.97
2017-10-27T02:29:50.753Z,4.40
2017-10-27T02:32:19.097Z,3.63
2017-10-27T02:34:46.670Z,4.80
2017-10-27T02:37:14.215Z,4.43
2017-10-27T02:39:41.833Z,4.07
2017-10-27T02:42:10.151Z,4.27
2017-10-27T02:44:37.753Z,4.77
2017-10-27T02:47:05.337Z,3.37
2017-10-27T02:49:33.662Z,3.30
2017-10-27T02:52:01.277Z,4.00
2017-10-27T02:54:28.833Z,8.13
2017-10-27T02:56:57.205Z,4.33
2017-10-27T02:59:24.778Z,3.40
2017-10-27T03:01:52.385Z,4.40
2017-10-27T03:04:19.965Z,4.03
2017-10-27T03:06:47.569Z,3.57
2017-10-27T03:09:15.940Z,4.07
2017-10-27T03:11:43.531Z,6.30
2017-10-27T03:14:11.131Z,3.07
2017-10-27T03:16:38.698Z,3.23
2017-10-27T03:19:06.322Z,3.87
2017-10-27T03:21:33.860Z,2.93
2017-10-27T03:24:01.436Z,3.30
2017-10-27T03:26:28.993Z,3.00
2017-10-27T03:28:56.709Z,3.20
2017-10-27T03:31:24.269Z,4.77
2017-10-27T03:33:52.630Z,2.90
2017-10-27T03:36:20.176Z,3.20
2017-10-27T03:38:47.769Z,8.57
2017-10-27T03:41:16.449Z,4.57
2017-10-27T03:43:44.084Z,3.80
2017-10-27T03:46:11.695Z,4.63
2017-10-27T03:48:39.323Z,4.37
2017-10-27T03:51:06.977Z,4.40
2017-10-27T03:53:34.537Z,4.67
2017-10-27T03:56:02.154Z,7.30
2017-10-27T03:58:29.750Z,5.83
2017-10-27T04:00:58.361Z,4.10
2017-10-27T04:03:25.934Z,5.43
2017-10-27T04:05:53.525Z,3.97
2017-10-27T04:08:21.893Z,6.40
2017-10-27T04:10:49.446Z,4.47
2017-10-27T04:13:17.075Z,4.67
2017-10-27T04:15:44.720Z,4.60
2017-10-27T04:18:14.059Z,4.77
2017-10-27T04:20:41.652Z,5.73
2017-10-27T04:23:09.239Z,5.40
2017-10-27T04:25:36.833Z,6.20
2017-10-27T04:28:04.413Z,5.47
2017-10-27T04:30:33.109Z,4.53
2017-10-27T04:33:00.686Z,5.00
2017-10-27T04:35:28.299Z,8.50
2017-10-27T04:37:56.673Z,6.70
2017-10-27T04:40:25.007Z,5.27
2017-10-27T04:42:52.539Z,8.93
2017-10-27T04:45:20.888Z,8.30
2017-10-27T04:47:48.447Z,5.47
2017-10-27T04:50:16.003Z,8.83
2017-10-27T04:52:43.585Z,5.53
2017-10-27T04:55:12.174Z,7.97
2017-10-27T04:57:39.742Z,6.13
2017-10-27T05:00:08.705Z,9.37
2017-10-27T05:02:36.294Z,6.57
2017-10-27T05:05:03.863Z,6.73
2017-10-27T05:07:31.426Z,9.90
2017-10-27T05:09:58.986Z,7.40
2017-10-27T05:12:27.917Z,7.70
2017-10-27T05:14:56.792Z,10.57
2017-10-27T05:17:30.032Z,7.20
2017-10-27T05:20:03.348Z,9.03
2017-10-27T05:22:37.336Z,8.93
2017-10-27T05:25:04.911Z,10.70
2017-10-27T05:27:32.508Z,9.20
2017-10-27T05:30:00.091Z,9.90
2017-10-27T05:32:27.661Z,8.13
2017-10-27T05:34:55.241Z,10.70
2017-10-27T05:37:23.587Z,10.60
2017-10-27T05:39:51.179Z,11.60
2017-10-27T05:42:18.737Z,14.33
2017-10-27T05:44:47.187Z,10.43
2017-10-27T05:47:14.763Z,10.50
2017-10-27T05:49:42.340Z,17.23
2017-10-27T05:52:09.938Z,14.57
2017-10-27T05:54:38.284Z,12.63
2017-10-27T05:57:06.092Z,12.80
2017-10-27T05:59:33.678Z,13.23
2017-10-27T06:02:01.578Z,11.97
2017-10-27T06:04:29.152Z,14.93
2017-10-27T06:06:56.774Z,15.63
2017-10-27T06:09:24.352Z,12.70
2017-10-27T06:11:51.927Z,12.50
2017-10-27T06:14:19.474Z,12.43
2017-10-27T06:16:47.458Z,16.43
2017-10-27T06:19:15.062Z,10.27
2017-10-27T06:21:42.625Z,11.93
2017-10-27T06:24:10.226Z,12.00
2017-10-27T06:26:38.757Z,12.10
2017-10-27T06:29:08.282Z,11.93
2017-10-27T06:31:36.281Z,13.43
2017-10-27T06:34:04.613Z,14.93
2017-10-27T06:36:32.200Z,13.17
2017-10-27T06:38:59.787Z,12.10
2017-10-27T06:41:28.135Z,13.03
2017-10-27T06:43:55.720Z,13.27
2017-10-27T06:46:23.280Z,12.07
2017-10-27T06:48:50.857Z,13.23
2017-10-27T06:51:18.633Z,12.07
2017-10-27T06:53:46.171Z,12.73
2017-10-27T06:56:13.747Z,13.67
2017-10-27T06:58:41.299Z,15.27
2017-10-27T07:01:08.892Z,15.10
2017-10-27T07:03:37.247Z,13.30
2017-10-27T07:06:04.832Z,11.40
2017-10-27T07:08:33.210Z,16.13
2017-10-27T07:11:00.791Z,11.97
2017-10-27T07:13:29.110Z,11.30
2017-10-27T07:15:56.669Z,13.07
2017-10-27T07:18:24.243Z,14.70
2017-10-27T07:20:51.839Z,12.13
2017-10-27T07:23:19.413Z,10.67
2017-10-27T07:25:46.993Z,16.10
2017-10-27T07:28:14.668Z,13.37
2017-10-27T07:30:43.028Z,12.33
2017-10-27T07:33:10.595Z,13.93
2017-10-27T07:35:38.214Z,11.83
2017-10-27T07:38:05.776Z,17.40
2017-10-27T07:40:33.365Z,16.63
2017-10-27T07:43:00.943Z,9.67
2017-10-27T07:45:28.579Z,10.17
2017-10-27T07:47:56.162Z,9.73
2017-10-27T07:50:23.739Z,9.47
2017-10-27T07:52:52.851Z,8.00
2017-10-27T07:55:20.411Z,7.90
2017-10-27T07:57:48.058Z,12.73
2017-10-27T08:00:18.504Z,9.43
2017-10-27T08:02:46.076Z,10.93
2017-10-27T08:05:13.669Z,7.33
2017-10-27T08:07:42.052Z,7.30
2017-10-27T08:10:10.430Z,7.90
2017-10-27T08:12:37.994Z,8.57
2017-10-27T08:15:08.604Z,9.03
2017-10-27T08:17:36.198Z,8.63
2017-10-27T08:20:04.530Z,8.37
2017-10-27T08:22:33.126Z,8.73
2017-10-27T08:25:00.724Z,8.00
2017-10-27T08:27:29.136Z,6.77
2017-10-27T08:29:57.517Z,8.20
2017-10-27T08:32:25.080Z,7.33
2017-10-27T08:34:52.698Z,6.90
2017-10-27T08:37:20.313Z,7.10
2017-10-27T08:39:48.664Z,8.17
2017-10-27T08:42:27.162Z,7.27
2017-10-27T08:44:54.764Z,7.77
2017-10-27T08:47:23.060Z,7.77
2017-10-27T08:49:50.615Z,6.30
2017-10-27T08:52:18.963Z,8.57
2017-10-27T08:54:46.522Z,10.10
2017-10-27T08:57:14.147Z,6.00
2017-10-27T08:59:41.704Z,5.97
2017-10-27T09:02:09.319Z,5.30
2017-10-27T09:04:36.910Z,6.20
2017-10-27T09:07:05.276Z,5.57
2017-10-27T09:09:32.884Z,5.50
2017-10-27T09:12:01.835Z,5.63
2017-10-27T09:14:29.419Z,8.03
2017-10-27T09:16:57.804Z,4.83
2017-10-27T09:19:26.205Z,5.57
2017-10-27T09:21:53.778Z,4.70
2017-10-27T09:24:22.335Z,7.83
2017-10-27T09:26:49.927Z,4.03
2017-10-27T09:29:17.556Z,3.27
2017-10-27T09:31:45.166Z,7.03
2017-10-27T09:34:13.260Z,3.00
2017-10-27T09:36:40.883Z,3.10
2017-10-27T09:39:09.238Z,2.67
2017-10-27T09:41:36.884Z,2.90
2017-10-27T09:44:04.478Z,1.93
2017-10-27T09:46:32.859Z,3.00
2017-10-27T09:49:00.514Z,2.60
2017-10-27T09:51:28.107Z,3.20
2017-10-27T09:53:56.528Z,3.00
2017-10-27T09:56:24.135Z,2.33
2017-10-27T09:58:51.753Z,2.13
2017-10-27T10:01:19.353Z,2.73
2017-10-27T10:03:46.965Z,3.00
2017-10-27T10:06:14.507Z,2.43
2017-10-27T10:08:42.888Z,3.13
2017-10-27T10:11:10.529Z,2.83
2017-10-27T10:13:38.140Z,3.10
2017-10-27T10:16:06.556Z,2.57
2017-10-27T10:18:34.144Z,3.43
2017-10-27T10:21:01.738Z,3.80
2017-10-27T10:23:29.331Z,6.03
2017-10-27T10:25:56.946Z,4.97
2017-10-27T10:28:24.511Z,7.47
2017-10-27T10:30:52.164Z,6.90
2017-10-27T10:33:19.764Z,6.80
2017-10-27T10:35:47.351Z,6.40
2017-10-27T10:38:14.926Z,7.83
2017-10-27T10:40:42.498Z,7.70
2017-10-27T10:43:10.112Z,8.20
2017-10-27T10:45:37.719Z,9.93
2017-10-27T10:48:06.086Z,6.13
2017-10-27T10:50:34.453Z,8.40
2017-10-27T10:53:02.035Z,5.90
2017-10-27T10:55:29.617Z,5.40
2017-10-27T10:57:57.219Z,8.33
2017-10-27T11:00:24.827Z,7.30
2017-10-27T11:02:52.651Z,6.67
2017-10-27T11:05:20.343Z,6.57
2017-10-27T11:07:47.935Z,7.30
2017-10-27T11:10:16.333Z,9.77
2017-10-27T11:12:44.861Z,7.90
2017-10-27T11:15:12.493Z,10.73
2017-10-27T11:17:40.132Z,8.50
2017-10-27T11:20:08.519Z,6.93
2017-10-27T11:22:36.990Z,7.13
2017-10-27T11:25:04.583Z,8.73
2017-10-27T11:27:34.347Z,10.10
2017-10-27T11:30:02.227Z,8.47
2017-10-27T11:32:29.815Z,6.57
2017-10-27T11:34:57.449Z,7.47
2017-10-27T11:37:25.035Z,7.43
2017-10-27T11:39:52.841Z,9.67
2017-10-27T11:42:20.834Z,7.87
2017-10-27T11:44:48.501Z,10.57
2017-10-27T11:47:16.246Z,12.13
2017-10-27T11:49:43.957Z,7.60
2017-10-27T11:52:11.576Z,7.37
2017-10-27T11:54:39.235Z,9.07
2017-10-27T11:57:07.636Z,7.40
2017-10-27T11:59:36.614Z,8.03
2017-10-27T12:02:04.538Z,10.33
2017-10-27T12:04:32.113Z,8.43
2017-10-27T12:06:59.746Z,7.90
2017-10-27T12:09:27.361Z,7.90
2017-10-27T12:11:54.919Z,7.43
2017-10-27T12:14:22.755Z,9.63
2017-10-27T12:16:50.542Z,10.47
2017-10-27T12:19:18.158Z,7.23
2017-10-27T12:21:46.480Z,8.67
2017-10-27T12:24:14.079Z,8.37
2017-10-27T12:26:41.709Z,7.83
2017-10-27T12:29:10.223Z,8.40
2017-10-27T12:31:38.110Z,8.40
2017-10-27T12:34:05.877Z,7.33
2017-10-27T12:36:33.467Z,7.30
2017-10-27T12:39:02.207Z,6.60
2017-10-27T12:41:29.812Z,6.93
2017-10-27T12:43:57.646Z,6.90
2017-10-27T12:46:25.453Z,6.23
2017-10-27T12:48:53.847Z,6.23
2017-10-27T12:51:21.522Z,5.93
2017-10-27T12:53:49.969Z,7.47
2017-10-27T12:56:17.573Z,5.97
2017-10-27T12:58:45.926Z,5.83
2017-10-27T13:01:13.539Z,6.40
2017-10-27T13:03:41.143Z,6.20
2017-10-27T13:06:08.755Z,5.90
2017-10-27T13:08:37.696Z,5.97
2017-10-27T13:11:05.255Z,5.90
2017-10-27T13:13:32.871Z,8.67
2017-10-27T13:16:00.527Z,7.70
2017-10-27T13:18:28.903Z,6.10
2017-10-27T13:20:56.512Z,7.67
2017-10-27T13:23:24.130Z,6.00
2017-10-27T13:25:51.682Z,7.07
2017-10-27T13:28:19.258Z,6.73
2017-10-27T13:30:46.851Z,6.13
2017-10-27T13:33:14.456Z,6.10
2017-10-27T13:35:42.044Z,6.93
2017-10-27T13:38:09.576Z,9.20
2017-10-27T13:40:37.138Z,7.00
2017-10-27T13:43:04.705Z,7.30
2017-10-27T13:45:32.264Z,8.00
2017-10-27T13:48:00.574Z,8.10
2017-10-27T13:50:28.148Z,8.53
2017-10-27T13:52:55.710Z,5.83
2017-10-27T13:55:23.302Z,6.00
2017-10-27T13:57:51.038Z,6.10
2017-10-27T14:00:18.575Z,9.00
2017-10-27T14:02:46.156Z,6.53
2017-10-27T14:05:13.706Z,6.10
2017-10-27T14:07:41.324Z,6.40
2017-10-27T14:10:08.902Z,6.13
2017-10-27T14:12:37.356Z,8.50
2017-10-27T14:15:04.957Z,5.10
2017-10-27T14:17:33.412Z,6.33
2017-10-27T14:20:01.030Z,6.23
2017-10-27T14:22:28.656Z,4.40
2017-10-27T14:24:56.264Z,6.73
2017-10-27T14:27:23.872Z,8.50
2017-10-27T14:29:51.468Z,5.30
2017-10-27T14:32:19.012Z,6.27
2017-10-27T14:34:46.612Z,8.13
2017-10-27T14:37:14.965Z,6.30
2017-10-27T14:39:42.614Z,10.30
2017-10-27T14:42:10.260Z,4.10
2017-10-27T14:44:37.828Z,4.10
2017-10-27T14:47:05.415Z,5.93
2017-10-27T14:49:33.035Z,6.13
2017-10-27T14:52:00.629Z,4.77
2017-10-27T14:54:28.248Z,7.70
2017-10-27T14:56:56.946Z,5.10
2017-10-27T14:59:25.303Z,9.00
2017-10-27T15:01:52.866Z,5.03
2017-10-27T15:04:22.257Z,6.30
2017-10-27T15:06:49.900Z,5.30
2017-10-27T15:09:17.533Z,5.73
2017-10-27T15:11:45.895Z,10.07
2017-10-27T15:14:13.460Z,5.60
2017-10-27T15:16:41.149Z,4.30
2017-10-27T15:19:09.541Z,4.80
2017-10-27T15:21:37.279Z,5.17
2017-10-27T15:24:04.856Z,8.17
2017-10-27T15:26:33.269Z,6.43
2017-10-27T15:29:00.931Z,6.20
2017-10-27T15:31:28.509Z,5.00
2017-10-27T15:33:57.926Z,10.33
2017-10-27T15:36:25.522Z,4.53
2017-10-27T15:38:54.665Z,6.20
2017-10-27T15:41:22.275Z,4.10
2017-10-27T15:43:49.877Z,8.20
2017-10-27T15:46:17.571Z,5.13
2017-10-27T15:48:45.202Z,6.53
2017-10-27T15:51:13.002Z,4.23
2017-10-27T15:53:40.923Z,4.10
2017-10-27T15:56:08.554Z,4.90
2017-10-27T15:58:36.187Z,4.93
2017-10-27T16:01:04.487Z,4.30
2017-10-27T16:03:32.119Z,5.77
2017-10-27T16:05:59.699Z,4.20
2017-10-27T16:08:28.005Z,5.93
2017-10-27T16:10:55.823Z,4.93
2017-10-27T16:13:23.412Z,7.00
2017-10-27T16:15:51.766Z,5.10
2017-10-27T16:18:20.142Z,9.60
2017-10-27T16:20:47.770Z,6.80
2017-10-27T16:23:15.334Z,5.47
2017-10-27T16:25:42.936Z,5.50
2017-10-27T16:28:10.647Z,6.43
2017-10-27T16:30:39.155Z,11.00
2017-10-27T16:33:07.152Z,10.50
2017-10-27T16:35:34.732Z,7.73
2017-10-27T16:38:02.259Z,8.83
2017-10-27T16:40:29.844Z,6.67
2017-10-27T16:42:57.390Z,5.60
2017-10-27T16:45:25.002Z,7.20
2017-10-27T16:47:52.554Z,6.50
2017-10-27T16:50:20.098Z,7.33
2017-10-27T16:52:47.853Z,11.30
2017-10-27T16:55:15.453Z,7.13
2017-10-27T16:57:43.198Z,9.30
2017-10-27T17:00:10.747Z,9.40
2017-10-27T17:02:38.925Z,7.20
2017-10-27T17:05:06.860Z,8.90
2017-10-27T17:07:34.488Z,9.40
2017-10-27T17:10:02.084Z,7.70
2017-10-27T17:12:29.624Z,9.10
2017-10-27T17:14:57.194Z,10.30
2017-10-27T17:17:24.740Z,8.73
2017-10-27T17:19:52.315Z,10.53
2017-10-27T17:22:20.723Z,11.80
2017-10-27T17:24:48.284Z,27.50
2017-10-27T17:27:16.816Z,10.83
2017-10-27T17:29:44.823Z,8.53
2017-10-27T17:32:12.561Z,8.63
2017-10-27T17:34:40.121Z,10.80
2017-10-27T17:37:07.761Z,12.43
2017-10-27T17:39:35.347Z,12.17
2017-10-27T17:42:04.702Z,14.70
2017-10-27T17:44:32.319Z,10.20
2017-10-27T17:46:59.931Z,9.87
2017-10-27T17:49:27.508Z,10.83
2017-10-27T17:51:55.155Z,10.07
2017-10-27T17:54:22.743Z,9.40
2017-10-27T17:56:50.363Z,10.50
2017-10-27T17:59:17.950Z,13.50
2017-10-27T18:01:45.558Z,14.10
2017-10-27T18:04:13.895Z,13.33
2017-10-27T18:06:41.467Z,10.87
2017-10-27T18:09:09.337Z,18.60
2017-10-27T18:11:36.967Z,14.00
2017-10-27T18:14:05.706Z,11.40
2017-10-27T18:16:33.445Z,10.13
2017-10-27T18:19:01.186Z,16.52
2017-10-27T18:21:28.845Z,13.75
2017-10-27T18:23:57.293Z,9.77
2017-10-27T18:26:28.852Z,22.00
2017-10-27T18:28:57.856Z,9.07
2017-10-27T18:31:25.920Z,10.02
2017-10-27T18:33:54.757Z,13.57
2017-10-27T18:36:24.473Z,12.73
2017-10-27T18:38:52.317Z,8.57
2017-10-27T18:41:38.717Z,10.97
2017-10-27T18:44:06.493Z,8.20
2017-10-27T18:46:35.051Z,11.87
2017-10-27T18:49:03.574Z,14.10
2017-10-27T18:51:32.917Z,9.47
2017-10-27T18:54:01.015Z,8.90
2017-10-27T18:56:35.884Z,9.57
2017-10-27T18:59:03.577Z,14.60
2017-10-27T19:01:31.495Z,12.93
2017-10-27T19:03:59.323Z,9.50
2017-10-27T19:06:26.939Z,10.47
2017-10-27T19:08:54.519Z,11.93
2017-10-27T19:11:22.079Z,9.77
2017-10-27T19:13:49.794Z,9.80
2017-10-27T19:16:20.004Z,10.33
2017-10-27T19:18:48.868Z,10.10
2017-10-27T19:21:17.725Z,8.60
2017-10-27T19:23:45.450Z,9.00
2017-10-27T19:26:21.052Z,9.83
2017-10-27T19:28:52.701Z,13.63
2017-10-27T19:31:30.014Z,10.73
2017-10-27T19:34:07.432Z,9.27
2017-10-27T19:36:36.085Z,11.80
2017-10-27T19:39:04.615Z,14.73
2017-10-27T19:41:34.619Z,10.90
2017-10-27T19:44:02.730Z,8.30
2017-10-27T19:46:32.185Z,16.10
2017-10-27T19:49:01.310Z,11.43
2017-10-27T19:51:30.813Z,11.05
2017-10-27T19:53:59.699Z,15.10
2017-10-27T19:56:28.117Z,9.77
2017-10-27T19:58:56.094Z,10.83
2017-10-27T20:01:24.056Z,10.77
2017-10-27T20:03:52.966Z,10.77
2017-10-27T20:06:21.683Z,8.50
2017-10-27T20:08:50.101Z,13.50
2017-10-27T20:11:18.326Z,11.13
2017-10-27T20:13:49.896Z,11.10
2017-10-27T20:16:18.502Z,11.67
2017-10-27T20:18:47.556Z,10.90
2017-10-27T20:21:15.485Z,9.20
2017-10-27T20:23:43.719Z,9.77
2017-10-27T20:26:15.399Z,11.27
2017-10-27T20:28:44.074Z,10.73
2017-10-27T20:31:15.356Z,9.87
2017-10-27T20:33:44.284Z,10.10
2017-10-27T20:36:12.408Z,9.13
2017-10-27T20:38:42.469Z,9.33
2017-10-27T20:41:10.522Z,10.87
2017-10-27T20:43:38.963Z,10.33
2017-10-27T20:46:07.537Z,8.85
2017-10-27T20:48:36.576Z,11.40
2017-10-27T20:51:04.666Z,9.20
2017-10-27T20:53:32.456Z,14.03
2017-10-27T20:56:00.215Z,13.63
2017-10-27T20:58:29.246Z,14.33
2017-10-27T21:00:56.905Z,9.57
2017-10-27T21:03:25.635Z,9.30
2017-10-27T21:05:53.444Z,13.40
2017-10-27T21:08:22.790Z,9.23
2017-10-27T21:10:52.937Z,9.30
2017-10-27T21:13:21.264Z,10.67
2017-10-27T21:15:51.253Z,10.30
2017-10-27T21:18:19.190Z,11.50
2017-10-27T21:20:48.185Z,12.95
2017-10-27T21:23:15.873Z,10.15
2017-10-27T21:25:44.545Z,10.23
2017-10-27T21:28:13.120Z,14.50
2017-10-27T21:30:40.911Z,11.90
2017-10-27T21:33:09.007Z,10.47
2017-10-27T21:35:36.659Z,9.87
2017-10-27T21:38:05.248Z,8.73
2017-10-27T21:40:33.379Z,11.50
2017-10-27T21:43:01.005Z,13.17
2017-10-27T21:45:28.731Z,11.00
2017-10-27T21:47:56.454Z,9.88
2017-10-27T21:50:24.055Z,14.70
2017-10-27T21:52:51.714Z,13.23
2017-10-27T21:55:19.316Z,9.73
2017-10-27T21:57:46.882Z,9.80
2017-10-27T22:00:14.490Z,12.60
2017-10-27T22:02:42.118Z,18.40
2017-10-27T22:05:09.668Z,8.30
2017-10-27T22:07:37.254Z,11.03
2017-10-27T22:10:04.863Z,10.70
2017-10-27T22:12:32.511Z,12.20
2017-10-27T22:15:00.187Z,11.93
2017-10-27T22:17:27.776Z,12.13
2017-10-27T22:19:55.348Z,10.37
2017-10-27T22:22:23.690Z,11.85
2017-10-27T22:24:51.472Z,14.43
2017-10-27T22:27:19.254Z,15.13
2017-10-27T22:29:46.877Z,16.60
2017-10-27T22:32:16.323Z,13.13
2017-10-27T22:34:43.878Z,9.80
2017-10-27T22:37:12.928Z,12.27
2017-10-27T22:39:40.547Z,20.77
2017-10-27T22:42:10.771Z,15.00
2017-10-27T22:44:38.498Z,9.87
2017-10-27T22:47:06.101Z,11.90
2017-10-27T22:49:33.649Z,12.80
2017-10-27T22:52:18.281Z,9.77
2017-10-27T22:54:46.413Z,11.23
2017-10-27T22:57:16.021Z,15.30
2017-10-27T22:59:43.698Z,14.57
2017-10-27T23:02:11.244Z,12.23
2017-10-27T23:04:38.816Z,9.53
2017-10-27T23:07:09.868Z,10.80
2017-10-27T23:09:39.852Z,11.23
2017-10-27T23:12:08.250Z,9.37
2017-10-27T23:14:35.801Z,16.57
2017-10-27T23:17:03.467Z,13.03
2017-10-27T23:19:31.029Z,11.50
2017-10-27T23:21:59.382Z,13.47
2017-10-27T23:24:27.159Z,11.93
2017-10-27T23:26:54.771Z,11.07
2017-10-27T23:29:24.079Z,10.70
2017-10-27T23:31:51.705Z,20.13
2017-10-27T23:34:20.069Z,12.37
2017-10-27T23:36:47.643Z,12.23
2017-10-27T23:39:16.227Z,12.75
2017-10-27T23:41:45.136Z,12.67
2017-10-27T23:44:12.744Z,11.30
2017-10-27T23:46:40.327Z,12.98
2017-10-27T23:49:08.648Z,13.40
2017-10-27T23:51:36.244Z,15.80
2017-10-27T23:54:05.411Z,11.23
2017-10-27T23:56:32.996Z,12.37
2017-10-27T23:59:00.601Z,11.60
